sensor_id;sensor_type;location;lat;lon;timestamp;pressure;altitude;pressure_sealevel;temperature;humidity
26192;BME280;13935;55.672;37.764;2023-03-13T00:00:46;98639.09;;;-1.77;100.00
26192;BME280;13935;55.672;37.764;2023-03-13T00:01:50;98632.75;;;-1.81;100.00
26192;BME280;13935;55.672;37.764;2023-03-13T00:03:00;98633.00;;;-1.62;100.00
26192;BME280;13935;55.672;37.764;2023-03-13T00:04:07;98634.91;;;-1.75;100.00
26192;BME280;13935;55.672;37.764;2023-03-13T00:05:12;98635.47;;;-1.69;100.00
26192;BME280;13935;55.672;37.764;2023-03-13T00:06:17;98645.41;;;-1.73;100.00
26192;BME280;13935;55.672;37.764;2023-03-13T00:07:21;98644.94;;;-1.63;100.00
26192;BME280;13935;55.672;37.764;2023-03-13T00:08:28;98646.09;;;-1.64;100.00
26192;BME280;13935;55.672;37.764;2023-03-13T00:09:34;98644.06;;;-1.67;100.00
26192;BME280;13935;55.672;37.764;2023-03-13T00:10:41;98648.34;;;-1.78;100.00
26192;BME280;13935;55.672;37.764;2023-03-13T00:11:46;98651.59;;;-1.73;100.00
26192;BME280;13935;55.672;37.764;2023-03-13T00:12:49;98649.69;;;-1.72;100.00
26192;BME280;13935;55.672;37.764;2023-03-13T00:13:55;98658.97;;;-1.61;100.00
26192;BME280;13935;55.672;37.764;2023-03-13T00:15:00;98651.16;;;-1.75;100.00
26192;BME280;13935;55.672;37.764;2023-03-13T00:16:13;98655.25;;;-1.57;100.00
26192;BME280;13935;55.672;37.764;2023-03-13T00:17:20;98659.88;;;-1.57;100.00
26192;BME280;13935;55.672;37.764;2023-03-13T00:18:25;98662.91;;;-1.59;100.00
26192;BME280;13935;55.672;37.764;2023-03-13T00:19:29;98665.19;;;-1.49;100.00
26192;BME280;13935;55.672;37.764;2023-03-13T00:20:33;98657.72;;;-1.64;100.00
26192;BME280;13935;55.672;37.764;2023-03-13T00:21:39;98661.22;;;-1.51;100.00
26192;BME280;13935;55.672;37.764;2023-03-13T00:22:44;98667.78;;;-1.52;100.00
26192;BME280;13935;55.672;37.764;2023-03-13T00:23:53;98661.69;;;-1.61;100.00
26192;BME280;13935;55.672;37.764;2023-03-13T00:24:56;98675.22;;;-1.49;100.00
26192;BME280;13935;55.672;37.764;2023-03-13T00:26:10;98673.88;;;-1.55;100.00
26192;BME280;13935;55.672;37.764;2023-03-13T00:27:16;98677.59;;;-1.48;100.00
26192;BME280;13935;55.672;37.764;2023-03-13T00:28:23;98677.28;;;-1.46;100.00
26192;BME280;13935;55.672;37.764;2023-03-13T00:29:31;98682.66;;;-1.70;100.00
26192;BME280;13935;55.672;37.764;2023-03-13T00:30:36;98681.88;;;-1.71;100.00
26192;BME280;13935;55.672;37.764;2023-03-13T00:31:39;98685.84;;;-1.44;100.00
26192;BME280;13935;55.672;37.764;2023-03-13T00:32:48;98685.63;;;-1.51;100.00
26192;BME280;13935;55.672;37.764;2023-03-13T00:33:53;98685.16;;;-1.65;100.00
26192;BME280;13935;55.672;37.764;2023-03-13T00:34:57;98683.81;;;-1.59;100.00
26192;BME280;13935;55.672;37.764;2023-03-13T00:36:06;98691.03;;;-1.51;100.00
26192;BME280;13935;55.672;37.764;2023-03-13T00:37:09;98688.66;;;-1.53;100.00
26192;BME280;13935;55.672;37.764;2023-03-13T00:38:13;98693.44;;;-1.50;100.00
26192;BME280;13935;55.672;37.764;2023-03-13T00:39:15;98698.84;;;-1.50;100.00
26192;BME280;13935;55.672;37.764;2023-03-13T00:40:19;98702.13;;;-1.44;100.00
26192;BME280;13935;55.672;37.764;2023-03-13T00:41:29;98693.31;;;-1.53;100.00
26192;BME280;13935;55.672;37.764;2023-03-13T00:42:34;98705.16;;;-1.46;100.00
26192;BME280;13935;55.672;37.764;2023-03-13T00:43:40;98696.56;;;-1.48;100.00
26192;BME280;13935;55.672;37.764;2023-03-13T00:44:45;98696.38;;;-1.43;100.00
26192;BME280;13935;55.672;37.764;2023-03-13T00:45:48;98695.34;;;-1.50;100.00
26192;BME280;13935;55.672;37.764;2023-03-13T00:46:54;98691.84;;;-1.51;100.00
26192;BME280;13935;55.672;37.764;2023-03-13T00:47:59;98698.84;;;-1.50;100.00
26192;BME280;13935;55.672;37.764;2023-03-13T00:49:05;98698.25;;;-1.55;100.00
26192;BME280;13935;55.672;37.764;2023-03-13T00:50:11;98698.03;;;-1.50;100.00
26192;BME280;13935;55.672;37.764;2023-03-13T00:51:19;98704.81;;;-1.56;100.00
26192;BME280;13935;55.672;37.764;2023-03-13T00:52:26;98701.75;;;-1.55;100.00
26192;BME280;13935;55.672;37.764;2023-03-13T00:53:30;98717.34;;;-1.64;100.00
26192;BME280;13935;55.672;37.764;2023-03-13T00:54:34;98719.03;;;-1.71;100.00
26192;BME280;13935;55.672;37.764;2023-03-13T00:55:37;98718.09;;;-1.75;100.00
26192;BME280;13935;55.672;37.764;2023-03-13T00:56:40;98728.69;;;-1.82;100.00
26192;BME280;13935;55.672;37.764;2023-03-13T00:57:53;98728.81;;;-1.79;100.00
26192;BME280;13935;55.672;37.764;2023-03-13T00:58:58;98738.25;;;-1.64;100.00
26192;BME280;13935;55.672;37.764;2023-03-13T01:00:03;98739.47;;;-1.62;100.00
26192;BME280;13935;55.672;37.764;2023-03-13T01:01:26;98736.63;;;-1.77;100.00
26192;BME280;13935;55.672;37.764;2023-03-13T01:02:30;98737.53;;;-1.73;100.00
26192;BME280;13935;55.672;37.764;2023-03-13T01:03:36;98733.94;;;-1.65;100.00
26192;BME280;13935;55.672;37.764;2023-03-13T01:04:41;98746.25;;;-1.68;100.00
26192;BME280;13935;55.672;37.764;2023-03-13T01:06:00;98740.94;;;-1.64;100.00
26192;BME280;13935;55.672;37.764;2023-03-13T01:07:05;98747.28;;;-1.60;100.00
26192;BME280;13935;55.672;37.764;2023-03-13T01:08:07;98738.91;;;-1.55;100.00
26192;BME280;13935;55.672;37.764;2023-03-13T01:09:13;98746.16;;;-1.59;100.00
26192;BME280;13935;55.672;37.764;2023-03-13T01:10:19;98743.56;;;-1.56;100.00
26192;BME280;13935;55.672;37.764;2023-03-13T01:11:27;98748.88;;;-1.47;100.00
26192;BME280;13935;55.672;37.764;2023-03-13T01:12:31;98757.69;;;-1.39;100.00
26192;BME280;13935;55.672;37.764;2023-03-13T01:13:35;98757.00;;;-1.47;100.00
26192;BME280;13935;55.672;37.764;2023-03-13T01:14:40;98757.44;;;-1.45;100.00
26192;BME280;13935;55.672;37.764;2023-03-13T01:15:43;98757.94;;;-1.32;100.00
26192;BME280;13935;55.672;37.764;2023-03-13T01:16:47;98757.22;;;-1.52;100.00
26192;BME280;13935;55.672;37.764;2023-03-13T01:17:52;98762.66;;;-1.52;100.00
26192;BME280;13935;55.672;37.764;2023-03-13T01:19:04;98769.59;;;-1.63;100.00
26192;BME280;13935;55.672;37.764;2023-03-13T01:20:10;98760.34;;;-1.62;100.00
26192;BME280;13935;55.672;37.764;2023-03-13T01:21:16;98769.34;;;-1.70;100.00
26192;BME280;13935;55.672;37.764;2023-03-13T01:22:22;98777.03;;;-1.72;100.00
26192;BME280;13935;55.672;37.764;2023-03-13T01:23:28;98769.59;;;-1.63;100.00
26192;BME280;13935;55.672;37.764;2023-03-13T01:24:36;98773.56;;;-1.61;100.00
26192;BME280;13935;55.672;37.764;2023-03-13T01:25:41;98771.19;;;-1.62;100.00
26192;BME280;13935;55.672;37.764;2023-03-13T01:26:45;98778.06;;;-1.65;100.00
26192;BME280;13935;55.672;37.764;2023-03-13T01:27:50;98782.28;;;-1.55;100.00
26192;BME280;13935;55.672;37.764;2023-03-13T01:28:54;98786.34;;;-1.61;100.00
26192;BME280;13935;55.672;37.764;2023-03-13T01:30:00;98787.88;;;-1.72;100.00
26192;BME280;13935;55.672;37.764;2023-03-13T01:31:13;98788.00;;;-1.69;100.00
26192;BME280;13935;55.672;37.764;2023-03-13T01:32:18;98786.03;;;-1.80;100.00
26192;BME280;13935;55.672;37.764;2023-03-13T01:33:22;98795.75;;;-1.79;100.00
26192;BME280;13935;55.672;37.764;2023-03-13T01:34:24;98797.00;;;-1.77;100.00
26192;BME280;13935;55.672;37.764;2023-03-13T01:35:34;98802.03;;;-1.87;100.00
26192;BME280;13935;55.672;37.764;2023-03-13T01:36:37;98807.59;;;-2.04;100.00
26192;BME280;13935;55.672;37.764;2023-03-13T01:37:41;98799.94;;;-2.02;100.00
26192;BME280;13935;55.672;37.764;2023-03-13T01:38:52;98817.03;;;-2.10;100.00
26192;BME280;13935;55.672;37.764;2023-03-13T01:39:55;98809.84;;;-2.06;100.00
26192;BME280;13935;55.672;37.764;2023-03-13T01:40:58;98813.44;;;-2.14;100.00
26192;BME280;13935;55.672;37.764;2023-03-13T01:42:03;98814.72;;;-2.20;100.00
26192;BME280;13935;55.672;37.764;2023-03-13T01:43:20;98817.25;;;-2.15;100.00
26192;BME280;13935;55.672;37.764;2023-03-13T01:44:53;98815.25;;;-2.06;100.00
26192;BME280;13935;55.672;37.764;2023-03-13T01:46:02;98820.94;;;-2.19;100.00
26192;BME280;13935;55.672;37.764;2023-03-13T01:47:17;98827.00;;;-2.22;100.00
26192;BME280;13935;55.672;37.764;2023-03-13T01:49:47;98829.00;;;-2.31;100.00
26192;BME280;13935;55.672;37.764;2023-03-13T01:51:09;98823.44;;;-2.35;100.00
26192;BME280;13935;55.672;37.764;2023-03-13T01:52:19;98838.75;;;-2.39;100.00
26192;BME280;13935;55.672;37.764;2023-03-13T01:53:30;98843.88;;;-2.46;100.00
26192;BME280;13935;55.672;37.764;2023-03-13T01:54:42;98843.97;;;-2.63;100.00
26192;BME280;13935;55.672;37.764;2023-03-13T01:55:49;98835.53;;;-2.61;100.00
26192;BME280;13935;55.672;37.764;2023-03-13T01:56:59;98846.38;;;-2.70;100.00
26192;BME280;13935;55.672;37.764;2023-03-13T01:58:03;98843.31;;;-2.60;100.00
26192;BME280;13935;55.672;37.764;2023-03-13T01:59:13;98848.53;;;-2.83;100.00
26192;BME280;13935;55.672;37.764;2023-03-13T02:00:26;98859.47;;;-2.72;100.00
26192;BME280;13935;55.672;37.764;2023-03-13T02:01:31;98856.09;;;-2.69;100.00
26192;BME280;13935;55.672;37.764;2023-03-13T02:02:46;98851.16;;;-2.67;100.00
26192;BME280;13935;55.672;37.764;2023-03-13T02:03:51;98859.66;;;-2.77;100.00
26192;BME280;13935;55.672;37.764;2023-03-13T02:04:58;98860.75;;;-2.78;100.00
26192;BME280;13935;55.672;37.764;2023-03-13T02:06:04;98862.50;;;-2.82;100.00
26192;BME280;13935;55.672;37.764;2023-03-13T02:07:14;98864.72;;;-2.75;100.00
26192;BME280;13935;55.672;37.764;2023-03-13T02:08:23;98869.22;;;-2.87;100.00
26192;BME280;13935;55.672;37.764;2023-03-13T02:09:29;98867.91;;;-2.73;100.00
26192;BME280;13935;55.672;37.764;2023-03-13T02:10:40;98874.91;;;-2.81;100.00
26192;BME280;13935;55.672;37.764;2023-03-13T02:11:58;98878.72;;;-2.82;100.00
26192;BME280;13935;55.672;37.764;2023-03-13T02:13:05;98885.09;;;-2.78;100.00
26192;BME280;13935;55.672;37.764;2023-03-13T02:14:09;98884.44;;;-2.75;100.00
26192;BME280;13935;55.672;37.764;2023-03-13T02:15:18;98888.25;;;-2.76;100.00
26192;BME280;13935;55.672;37.764;2023-03-13T02:16:23;98889.56;;;-2.82;100.00
26192;BME280;13935;55.672;37.764;2023-03-13T02:17:28;98878.72;;;-2.73;100.00
26192;BME280;13935;55.672;37.764;2023-03-13T02:18:36;98892.75;;;-2.80;100.00
26192;BME280;13935;55.672;37.764;2023-03-13T02:19:49;98889.56;;;-2.82;100.00
26192;BME280;13935;55.672;37.764;2023-03-13T02:21:07;98892.44;;;-2.86;100.00
26192;BME280;13935;55.672;37.764;2023-03-13T02:22:28;98892.63;;;-2.91;100.00
26192;BME280;13935;55.672;37.764;2023-03-13T02:23:47;98897.84;;;-2.86;100.00
26192;BME280;13935;55.672;37.764;2023-03-13T02:26:30;98909.22;;;-3.01;100.00
26192;BME280;13935;55.672;37.764;2023-03-13T02:27:42;98912.19;;;-2.94;100.00
26192;BME280;13935;55.672;37.764;2023-03-13T02:28:49;98911.41;;;-2.95;100.00
26192;BME280;13935;55.672;37.764;2023-03-13T02:29:53;98920.78;;;-2.92;100.00
26192;BME280;13935;55.672;37.764;2023-03-13T02:30:56;98920.66;;;-3.04;100.00
26192;BME280;13935;55.672;37.764;2023-03-13T02:32:01;98920.16;;;-3.06;100.00
26192;BME280;13935;55.672;37.764;2023-03-13T02:33:05;98922.41;;;-3.08;100.00
26192;BME280;13935;55.672;37.764;2023-03-13T02:34:09;98916.69;;;-3.07;100.00
26192;BME280;13935;55.672;37.764;2023-03-13T02:35:17;98923.84;;;-3.02;100.00
26192;BME280;13935;55.672;37.764;2023-03-13T02:36:22;98931.28;;;-2.99;100.00
26192;BME280;13935;55.672;37.764;2023-03-13T02:37:31;98925.13;;;-3.08;100.00
26192;BME280;13935;55.672;37.764;2023-03-13T02:38:50;98938.28;;;-2.98;100.00
26192;BME280;13935;55.672;37.764;2023-03-13T02:40:00;98931.94;;;-3.02;100.00
26192;BME280;13935;55.672;37.764;2023-03-13T02:41:05;98935.47;;;-3.10;100.00
26192;BME280;13935;55.672;37.764;2023-03-13T02:42:13;98939.44;;;-3.16;100.00
26192;BME280;13935;55.672;37.764;2023-03-13T02:43:29;98936.25;;;-3.10;100.00
26192;BME280;13935;55.672;37.764;2023-03-13T02:44:39;98934.84;;;-3.07;100.00
26192;BME280;13935;55.672;37.764;2023-03-13T02:46:04;98947.34;;;-3.03;100.00
26192;BME280;13935;55.672;37.764;2023-03-13T02:47:10;98950.38;;;-3.04;100.00
26192;BME280;13935;55.672;37.764;2023-03-13T02:48:13;98949.91;;;-3.06;100.00
26192;BME280;13935;55.672;37.764;2023-03-13T02:50:27;98951.50;;;-3.05;100.00
26192;BME280;13935;55.672;37.764;2023-03-13T02:51:38;98951.69;;;-3.10;100.00
26192;BME280;13935;55.672;37.764;2023-03-13T02:52:51;98954.38;;;-3.10;100.00
26192;BME280;13935;55.672;37.764;2023-03-13T02:54:06;98950.53;;;-3.01;100.00
26192;BME280;13935;55.672;37.764;2023-03-13T02:55:23;98953.88;;;-2.95;100.00
26192;BME280;13935;55.672;37.764;2023-03-13T02:56:30;98957.25;;;-3.07;100.00
26192;BME280;13935;55.672;37.764;2023-03-13T02:57:35;98962.34;;;-3.14;100.00
26192;BME280;13935;55.672;37.764;2023-03-13T02:58:40;98954.56;;;-3.15;100.00
26192;BME280;13935;55.672;37.764;2023-03-13T02:59:56;98966.31;;;-3.11;100.00
26192;BME280;13935;55.672;37.764;2023-03-13T03:01:04;98967.91;;;-3.10;100.00
26192;BME280;13935;55.672;37.764;2023-03-13T03:02:12;98962.50;;;-3.10;100.00
26192;BME280;13935;55.672;37.764;2023-03-13T03:03:16;98963.16;;;-3.13;100.00
26192;BME280;13935;55.672;37.764;2023-03-13T03:04:23;98970.78;;;-3.15;100.00
26192;BME280;13935;55.672;37.764;2023-03-13T03:05:30;98973.00;;;-3.17;100.00
26192;BME280;13935;55.672;37.764;2023-03-13T03:06:35;98969.19;;;-3.25;100.00
26192;BME280;13935;55.672;37.764;2023-03-13T03:07:43;98974.59;;;-3.16;100.00
26192;BME280;13935;55.672;37.764;2023-03-13T03:08:46;98971.88;;;-3.16;100.00
26192;BME280;13935;55.672;37.764;2023-03-13T03:09:52;98979.19;;;-3.25;100.00
26192;BME280;13935;55.672;37.764;2023-03-13T03:10:57;98983.31;;;-3.19;100.00
26192;BME280;13935;55.672;37.764;2023-03-13T03:12:00;98980.16;;;-3.21;100.00
26192;BME280;13935;55.672;37.764;2023-03-13T03:13:05;98988.88;;;-3.24;100.00
26192;BME280;13935;55.672;37.764;2023-03-13T03:14:10;98989.84;;;-3.20;100.00
26192;BME280;13935;55.672;37.764;2023-03-13T03:15:18;98990.03;;;-3.17;100.00
26192;BME280;13935;55.672;37.764;2023-03-13T03:16:23;98989.53;;;-3.19;100.00
26192;BME280;13935;55.672;37.764;2023-03-13T03:17:27;98988.44;;;-3.26;100.00
26192;BME280;13935;55.672;37.764;2023-03-13T03:18:31;98991.13;;;-3.26;100.00
26192;BME280;13935;55.672;37.764;2023-03-13T03:19:42;98990.47;;;-3.23;100.00
26192;BME280;13935;55.672;37.764;2023-03-13T03:20:45;98987.63;;;-3.35;100.00
26192;BME280;13935;55.672;37.764;2023-03-13T03:21:48;98986.34;;;-3.29;100.00
26192;BME280;13935;55.672;37.764;2023-03-13T03:22:53;98991.59;;;-3.24;100.00
26192;BME280;13935;55.672;37.764;2023-03-13T03:23:56;98992.69;;;-3.25;100.00
26192;BME280;13935;55.672;37.764;2023-03-13T03:25:00;99001.13;;;-3.18;100.00
26192;BME280;13935;55.672;37.764;2023-03-13T03:26:05;99002.25;;;-3.19;100.00
26192;BME280;13935;55.672;37.764;2023-03-13T03:27:09;99006.06;;;-3.20;100.00
26192;BME280;13935;55.672;37.764;2023-03-13T03:28:21;98997.81;;;-3.15;100.00
26192;BME280;13935;55.672;37.764;2023-03-13T03:29:24;99013.06;;;-3.19;100.00
26192;BME280;13935;55.672;37.764;2023-03-13T03:30:29;99008.28;;;-3.22;100.00
26192;BME280;13935;55.672;37.764;2023-03-13T03:31:32;99008.78;;;-3.20;100.00
26192;BME280;13935;55.672;37.764;2023-03-13T03:32:37;99005.59;;;-3.22;100.00
26192;BME280;13935;55.672;37.764;2023-03-13T03:33:43;99016.88;;;-3.20;100.00
26192;BME280;13935;55.672;37.764;2023-03-13T03:34:48;99009.22;;;-3.18;100.00
26192;BME280;13935;55.672;37.764;2023-03-13T03:36:04;99013.22;;;-3.24;100.00
26192;BME280;13935;55.672;37.764;2023-03-13T03:37:08;99019.88;;;-3.22;100.00
26192;BME280;13935;55.672;37.764;2023-03-13T03:38:13;99022.28;;;-3.20;100.00
26192;BME280;13935;55.672;37.764;2023-03-13T03:39:21;99018.78;;;-3.29;100.00
26192;BME280;13935;55.672;37.764;2023-03-13T03:40:25;99025.94;;;-3.16;100.00
26192;BME280;13935;55.672;37.764;2023-03-13T03:41:31;99019.88;;;-3.22;100.00
26192;BME280;13935;55.672;37.764;2023-03-13T03:42:38;99029.59;;;-3.29;100.00
26192;BME280;13935;55.672;37.764;2023-03-13T03:43:41;99021.97;;;-3.27;100.00
26192;BME280;13935;55.672;37.764;2023-03-13T03:44:47;99029.59;;;-3.29;100.00
26192;BME280;13935;55.672;37.764;2023-03-13T03:45:51;99031.69;;;-3.26;100.00
26192;BME280;13935;55.672;37.764;2023-03-13T03:46:55;99032.13;;;-3.24;100.00
26192;BME280;13935;55.672;37.764;2023-03-13T03:48:01;99039.13;;;-3.23;100.00
26192;BME280;13935;55.672;37.764;2023-03-13T03:49:04;99037.69;;;-3.38;100.00
26192;BME280;13935;55.672;37.764;2023-03-13T03:50:10;99035.94;;;-3.25;100.00
26192;BME280;13935;55.672;37.764;2023-03-13T03:51:22;99035.50;;;-3.27;100.00
26192;BME280;13935;55.672;37.764;2023-03-13T03:52:25;99034.06;;;-3.25;100.00
26192;BME280;13935;55.672;37.764;2023-03-13T03:53:31;99042.00;;;-3.28;100.00
26192;BME280;13935;55.672;37.764;2023-03-13T03:54:35;99034.69;;;-3.36;100.00
26192;BME280;13935;55.672;37.764;2023-03-13T03:55:39;99042.94;;;-3.24;100.00
26192;BME280;13935;55.672;37.764;2023-03-13T03:56:42;99043.59;;;-3.10;100.00
26192;BME280;13935;55.672;37.764;2023-03-13T03:57:45;99036.09;;;-3.22;100.00
26192;BME280;13935;55.672;37.764;2023-03-13T03:58:54;99039.78;;;-3.26;100.00
26192;BME280;13935;55.672;37.764;2023-03-13T04:00:11;99048.06;;;-3.14;100.00
26192;BME280;13935;55.672;37.764;2023-03-13T04:01:25;99044.69;;;-3.11;100.00
26192;BME280;13935;55.672;37.764;2023-03-13T04:02:30;99044.88;;;-3.16;100.00
26192;BME280;13935;55.672;37.764;2023-03-13T04:03:33;99048.38;;;-3.07;100.00
26192;BME280;13935;55.672;37.764;2023-03-13T04:04:37;99050.44;;;-3.04;100.00
26192;BME280;13935;55.672;37.764;2023-03-13T04:05:48;99050.25;;;-2.99;100.00
26192;BME280;13935;55.672;37.764;2023-03-13T04:06:52;99053.13;;;-3.04;100.00
26192;BME280;13935;55.672;37.764;2023-03-13T04:07:59;99053.47;;;-3.06;100.00
26192;BME280;13935;55.672;37.764;2023-03-13T04:09:02;99056.50;;;-3.07;100.00
26192;BME280;13935;55.672;37.764;2023-03-13T04:10:07;99057.44;;;-3.03;100.00
26192;BME280;13935;55.672;37.764;2023-03-13T04:11:16;99060.28;;;-3.00;100.00
26192;BME280;13935;55.672;37.764;2023-03-13T04:12:24;99055.66;;;-2.99;100.00
26192;BME280;13935;55.672;37.764;2023-03-13T04:13:29;99053.63;;;-3.02;100.00
26192;BME280;13935;55.672;37.764;2023-03-13T04:14:36;99060.13;;;-3.20;100.00
26192;BME280;13935;55.672;37.764;2023-03-13T04:15:45;99068.25;;;-3.12;100.00
26192;BME280;13935;55.672;37.764;2023-03-13T04:16:50;99066.66;;;-3.13;100.00
26192;BME280;13935;55.672;37.764;2023-03-13T04:17:56;99064.25;;;-2.97;100.00
26192;BME280;13935;55.672;37.764;2023-03-13T04:19:02;99066.66;;;-2.96;100.00
26192;BME280;13935;55.672;37.764;2023-03-13T04:20:07;99077.31;;;-3.08;100.00
26192;BME280;13935;55.672;37.764;2023-03-13T04:21:13;99078.41;;;-3.26;100.00
26192;BME280;13935;55.672;37.764;2023-03-13T04:22:34;99070.94;;;-3.20;100.00
26192;BME280;13935;55.672;37.764;2023-03-13T04:23:37;99074.59;;;-3.16;100.00
26192;BME280;13935;55.672;37.764;2023-03-13T04:24:41;99077.31;;;-3.16;100.00
26192;BME280;13935;55.672;37.764;2023-03-13T04:25:44;99077.91;;;-3.19;100.00
26192;BME280;13935;55.672;37.764;2023-03-13T04:26:49;99080.00;;;-3.08;100.00
26192;BME280;13935;55.672;37.764;2023-03-13T04:27:52;99084.31;;;-3.15;100.00
26192;BME280;13935;55.672;37.764;2023-03-13T04:28:58;99092.56;;;-3.03;100.00
26192;BME280;13935;55.672;37.764;2023-03-13T04:30:18;99089.22;;;-3.09;100.00
26192;BME280;13935;55.672;37.764;2023-03-13T04:31:40;99092.75;;;-3.00;100.00
26192;BME280;13935;55.672;37.764;2023-03-13T04:33:04;99090.97;;;-3.04;100.00
26192;BME280;13935;55.672;37.764;2023-03-13T04:34:24;99088.13;;;-2.99;100.00
26192;BME280;13935;55.672;37.764;2023-03-13T04:35:36;99097.03;;;-2.82;100.00
26192;BME280;13935;55.672;37.764;2023-03-13T04:37:24;99099.41;;;-2.97;100.00
26192;BME280;13935;55.672;37.764;2023-03-13T04:38:40;99101.19;;;-2.93;100.00
26192;BME280;13935;55.672;37.764;2023-03-13T04:39:56;99106.09;;;-2.86;100.00
26192;BME280;13935;55.672;37.764;2023-03-13T04:41:20;99104.66;;;-2.84;100.00
26192;BME280;13935;55.672;37.764;2023-03-13T04:42:40;99111.03;;;-2.72;100.00
26192;BME280;13935;55.672;37.764;2023-03-13T04:43:54;99114.53;;;-2.80;100.00
26192;BME280;13935;55.672;37.764;2023-03-13T04:45:20;99115.34;;;-2.71;100.00
26192;BME280;13935;55.672;37.764;2023-03-13T04:46:24;99112.63;;;-2.71;100.00
26192;BME280;13935;55.672;37.764;2023-03-13T04:47:47;99121.88;;;-2.88;100.00
26192;BME280;13935;55.672;37.764;2023-03-13T04:49:16;99125.19;;;-2.75;100.00
26192;BME280;13935;55.672;37.764;2023-03-13T04:50:46;99136.16;;;-2.63;100.00
26192;BME280;13935;55.672;37.764;2023-03-13T04:52:04;99135.84;;;-2.95;100.00
26192;BME280;13935;55.672;37.764;2023-03-13T04:53:29;99148.09;;;-2.89;100.00
26192;BME280;13935;55.672;37.764;2023-03-13T04:54:38;99146.53;;;-2.65;100.00
26192;BME280;13935;55.672;37.764;2023-03-13T04:55:51;99155.56;;;-2.27;100.00
26192;BME280;13935;55.672;37.764;2023-03-13T04:57:11;99153.00;;;-2.15;100.00
26192;BME280;13935;55.672;37.764;2023-03-13T04:58:37;99158.28;;;-1.07;100.00
26192;BME280;13935;55.672;37.764;2023-03-13T05:00:00;99153.41;;;-0.32;100.00
26192;BME280;13935;55.672;37.764;2023-03-13T05:01:17;99159.53;;;-0.55;100.00
26192;BME280;13935;55.672;37.764;2023-03-13T05:02:35;99152.22;;;-0.22;100.00
26192;BME280;13935;55.672;37.764;2023-03-13T05:04:01;99159.91;;;1.39;99.00
26192;BME280;13935;55.672;37.764;2023-03-13T05:05:22;99160.25;;;2.04;87.37
26192;BME280;13935;55.672;37.764;2023-03-13T05:06:38;99170.59;;;3.18;82.05
26192;BME280;13935;55.672;37.764;2023-03-13T05:08:16;99166.25;;;3.86;73.61
26192;BME280;13935;55.672;37.764;2023-03-13T05:09:39;99180.50;;;4.77;69.25
26192;BME280;13935;55.672;37.764;2023-03-13T05:11:12;99172.16;;;5.18;64.91
26192;BME280;13935;55.672;37.764;2023-03-13T05:12:48;99174.31;;;5.32;61.29
26192;BME280;13935;55.672;37.764;2023-03-13T05:14:14;99175.56;;;5.63;59.89
26192;BME280;13935;55.672;37.764;2023-03-13T05:15:56;99192.13;;;5.70;55.53
26192;BME280;13935;55.672;37.764;2023-03-13T05:17:39;99189.41;;;6.69;53.53
26192;BME280;13935;55.672;37.764;2023-03-13T05:19:03;99196.53;;;7.16;51.63
26192;BME280;13935;55.672;37.764;2023-03-13T05:20:30;99196.34;;;7.42;49.37
26192;BME280;13935;55.672;37.764;2023-03-13T05:22:03;99204.28;;;7.54;46.98
26192;BME280;13935;55.672;37.764;2023-03-13T05:23:32;99202.34;;;8.26;48.83
26192;BME280;13935;55.672;37.764;2023-03-13T05:25:05;99207.69;;;9.07;49.54
26192;BME280;13935;55.672;37.764;2023-03-13T05:26:47;99202.91;;;8.76;47.35
26192;BME280;13935;55.672;37.764;2023-03-13T05:28:27;99216.16;;;8.33;43.80
26192;BME280;13935;55.672;37.764;2023-03-13T05:29:50;99209.91;;;8.50;44.68
26192;BME280;13935;55.672;37.764;2023-03-13T05:31:43;99211.91;;;8.59;43.74
26192;BME280;13935;55.672;37.764;2023-03-13T05:36:21;99224.13;;;6.84;48.08
26192;BME280;13935;55.672;37.764;2023-03-13T05:41:10;99226.34;;;3.48;52.31
26192;BME280;13935;55.672;37.764;2023-03-13T06:24:44;99248.69;;;-0.16;86.61
26192;BME280;13935;55.672;37.764;2023-03-13T06:26:24;99256.75;;;-0.08;86.32
26192;BME280;13935;55.672;37.764;2023-03-13T06:27:36;99257.97;;;-0.17;85.00
26192;BME280;13935;55.672;37.764;2023-03-13T06:28:58;99258.88;;;-0.13;85.20
26192;BME280;13935;55.672;37.764;2023-03-13T06:33:44;99254.94;;;0.16;86.73
26192;BME280;13935;55.672;37.764;2023-03-13T06:35:12;99263.66;;;0.54;85.08
26192;BME280;13935;55.672;37.764;2023-03-13T07:49:39;99392.69;;;9.84;35.46
26192;BME280;13935;55.672;37.764;2023-03-13T07:51:28;99389.38;;;9.12;37.34
26192;BME280;13935;55.672;37.764;2023-03-13T07:52:44;99397.09;;;8.72;38.46
26192;BME280;13935;55.672;37.764;2023-03-13T07:53:46;99400.25;;;8.74;38.79
26192;BME280;13935;55.672;37.764;2023-03-13T07:54:48;99394.56;;;7.96;38.25
26192;BME280;13935;55.672;37.764;2023-03-13T07:55:52;99390.16;;;7.88;38.95
26192;BME280;13935;55.672;37.764;2023-03-13T07:56:54;99391.84;;;7.20;39.65
26192;BME280;13935;55.672;37.764;2023-03-13T07:57:58;99392.03;;;7.77;40.21
26192;BME280;13935;55.672;37.764;2023-03-13T07:59:00;99402.06;;;7.99;40.19
26192;BME280;13935;55.672;37.764;2023-03-13T08:00:03;99398.66;;;7.69;39.81
26192;BME280;13935;55.672;37.764;2023-03-13T08:02:19;99393.44;;;6.88;41.88
26192;BME280;13935;55.672;37.764;2023-03-13T08:03:22;99395.59;;;7.05;42.45
26192;BME280;13935;55.672;37.764;2023-03-13T08:04:24;99402.94;;;6.94;42.28
26192;BME280;13935;55.672;37.764;2023-03-13T08:05:27;99397.63;;;6.79;42.62
26192;BME280;13935;55.672;37.764;2023-03-13T08:06:30;99398.28;;;6.43;42.20
26192;BME280;13935;55.672;37.764;2023-03-13T08:07:34;99386.59;;;6.20;43.31
26192;BME280;13935;55.672;37.764;2023-03-13T08:08:42;99397.28;;;6.03;43.84
26192;BME280;13935;55.672;37.764;2023-03-13T08:09:56;99392.59;;;6.03;43.79
26192;BME280;13935;55.672;37.764;2023-03-13T08:11:10;99400.13;;;5.84;44.25
26192;BME280;13935;55.672;37.764;2023-03-13T08:12:13;99394.22;;;6.08;43.64
26192;BME280;13935;55.672;37.764;2023-03-13T08:13:16;99403.16;;;6.01;43.86
26192;BME280;13935;55.672;37.764;2023-03-13T08:14:57;99408.66;;;6.27;44.14